createdAt,value
2022-12-25T00:02:01.850Z,23.70
2022-12-25T00:07:05.383Z,21.40
2022-12-25T00:12:08.899Z,26.10
2022-12-25T00:17:12.441Z,23.90
2022-12-25T00:22:15.960Z,21.50
2022-12-25T00:27:19.409Z,24.90
2022-12-25T00:32:22.996Z,20.20
2022-12-25T00:37:26.534Z,22.60
2022-12-25T00:42:30.089Z,22.90
2022-12-25T00:47:33.594Z,28.90
2022-12-25T00:52:37.130Z,51.70
2022-12-25T00:57:40.593Z,46.60
2022-12-25T01:02:44.212Z,47.30
2022-12-25T01:07:50.613Z,40.80
2022-12-25T01:12:54.162Z,40.40
2022-12-25T01:17:57.674Z,41.20
2022-12-25T01:23:01.263Z,35.20
2022-12-25T01:28:04.820Z,29.70
2022-12-25T01:33:08.294Z,32.40
2022-12-25T01:38:11.803Z,34.60
2022-12-25T01:43:18.649Z,32.80
2022-12-25T01:48:22.402Z,30.40
2022-12-25T01:53:25.878Z,30.30
2022-12-25T01:58:29.420Z,28.10
2022-12-25T02:03:32.985Z,32.00
2022-12-25T02:08:41.517Z,29.90
2022-12-25T02:13:45.125Z,29.00
2022-12-25T02:18:48.696Z,28.30
2022-12-25T02:23:52.241Z,24.30
2022-12-25T02:28:55.729Z,22.50
2022-12-25T02:34:05.351Z,26.80
2022-12-25T02:39:26.470Z,26.50
2022-12-25T02:44:47.905Z,23.60
2022-12-25T02:50:09.334Z,24.50
2022-12-25T02:55:30.853Z,23.10
2022-12-25T03:00:52.371Z,23.70
2022-12-25T03:06:16.009Z,20.90
2022-12-25T03:11:37.717Z,19.70
2022-12-25T03:16:54.009Z,23.50
2022-12-25T03:27:18.812Z,17.10
2022-12-25T03:32:22.326Z,21.20
2022-12-25T03:37:42.885Z,20.00
2022-12-25T03:43:00.253Z,19.70
2022-12-25T03:48:21.418Z,16.60
2022-12-25T03:53:42.871Z,20.70
2022-12-25T03:59:22.911Z,19.10
2022-12-25T04:04:44.964Z,20.20
2022-12-25T04:10:06.528Z,18.40
2022-12-25T04:15:28.070Z,19.70
2022-12-25T04:20:49.316Z,18.20
2022-12-25T04:26:10.774Z,16.30
2022-12-25T04:31:32.248Z,20.20
2022-12-25T04:36:35.825Z,14.70
2022-12-25T04:41:39.305Z,17.40
2022-12-25T04:46:42.981Z,17.90
2022-12-25T04:51:47.759Z,15.80
2022-12-25T04:56:51.255Z,19.40
2022-12-25T05:01:56.079Z,15.20
2022-12-25T05:06:59.786Z,15.60
2022-12-25T05:12:03.365Z,16.90
2022-12-25T05:17:08.031Z,20.30
2022-12-25T05:22:14.638Z,17.50
2022-12-25T05:27:18.261Z,15.30
2022-12-25T05:32:21.738Z,15.00
2022-12-25T05:37:25.303Z,13.50
2022-12-25T05:42:28.844Z,14.20
2022-12-25T05:47:32.396Z,17.20
2022-12-25T05:52:35.955Z,14.90
2022-12-25T05:57:39.483Z,15.90
2022-12-25T06:02:43.128Z,13.50
2022-12-25T06:07:46.940Z,16.90
2022-12-25T06:12:50.494Z,14.00
2022-12-25T06:17:54.012Z,14.00
2022-12-25T06:22:57.543Z,14.00
2022-12-25T06:28:01.164Z,11.90
2022-12-25T06:33:04.717Z,12.40
2022-12-25T06:38:08.232Z,13.00
2022-12-25T06:43:13.107Z,14.80
2022-12-25T06:48:16.630Z,13.90
2022-12-25T06:53:20.293Z,12.90
2022-12-25T06:58:23.833Z,14.40
2022-12-25T07:03:27.406Z,14.10
2022-12-25T07:13:34.713Z,13.30
2022-12-25T07:18:38.228Z,12.40
2022-12-25T07:23:41.740Z,14.30
2022-12-25T07:28:47.091Z,14.10
2022-12-25T07:33:50.636Z,15.50
2022-12-25T07:38:54.290Z,20.20
2022-12-25T07:43:58.163Z,14.10
2022-12-25T07:49:01.636Z,14.40
2022-12-25T07:54:05.191Z,14.10
2022-12-25T07:59:08.697Z,13.50
2022-12-25T08:04:12.379Z,16.60
2022-12-25T08:09:15.883Z,13.90
2022-12-25T08:14:19.377Z,15.90
2022-12-25T08:19:22.911Z,13.20
2022-12-25T08:24:26.425Z,17.50
2022-12-25T08:29:29.977Z,14.40
2022-12-25T08:34:33.461Z,16.30
2022-12-25T08:39:36.941Z,15.70
2022-12-25T08:44:40.421Z,15.30
2022-12-25T08:49:43.898Z,16.50
2022-12-25T08:59:51.565Z,47.40
2022-12-25T09:04:55.131Z,48.00
2022-12-25T09:09:58.616Z,37.30
2022-12-25T09:15:02.128Z,34.40
2022-12-25T09:20:05.817Z,33.80
2022-12-25T09:25:09.339Z,28.00
2022-12-25T09:30:12.966Z,25.60
2022-12-25T09:35:17.610Z,23.60
2022-12-25T09:40:21.128Z,23.20
2022-12-25T09:45:24.756Z,29.10
2022-12-25T09:50:28.267Z,25.70
2022-12-25T09:55:31.794Z,20.80
2022-12-25T10:00:35.301Z,26.50
2022-12-25T10:05:38.768Z,26.40
2022-12-25T10:10:42.315Z,22.30
2022-12-25T10:15:46.222Z,25.50
2022-12-25T10:20:49.848Z,22.90
2022-12-25T10:25:54.430Z,22.50
2022-12-25T10:30:57.958Z,19.50
2022-12-25T10:36:02.607Z,20.90
2022-12-25T10:41:06.340Z,19.50
2022-12-25T10:46:09.898Z,20.90
2022-12-25T10:51:13.554Z,19.00
2022-12-25T10:56:17.097Z,18.60
2022-12-25T11:01:20.806Z,20.90
2022-12-25T11:11:28.595Z,18.60
2022-12-25T11:16:32.170Z,17.70
2022-12-25T11:21:35.854Z,21.50
2022-12-25T11:26:40.459Z,17.90
2022-12-25T11:31:44.002Z,15.30
2022-12-25T11:36:47.510Z,16.80
2022-12-25T11:41:50.997Z,17.00
2022-12-25T11:46:55.155Z,16.30
2022-12-25T11:51:58.874Z,20.50
2022-12-25T11:57:02.397Z,21.00
2022-12-25T12:02:05.943Z,15.40
2022-12-25T12:07:09.573Z,16.20
2022-12-25T12:12:13.154Z,15.70
2022-12-25T12:17:16.760Z,14.10
2022-12-25T12:22:20.254Z,15.50
2022-12-25T12:27:23.761Z,16.60
2022-12-25T12:32:27.274Z,13.90
2022-12-25T12:37:30.925Z,15.60
2022-12-25T12:42:34.403Z,17.10
2022-12-25T12:47:37.939Z,16.80
2022-12-25T12:52:42.722Z,13.60
2022-12-25T12:57:46.622Z,13.50
2022-12-25T13:02:50.260Z,12.80
2022-12-25T13:07:54.294Z,16.00
2022-12-25T13:12:57.775Z,16.20
2022-12-25T13:18:01.303Z,15.70
2022-12-25T13:23:04.802Z,17.10
2022-12-25T13:28:08.331Z,21.20
2022-12-25T13:33:11.871Z,14.70
2022-12-25T13:38:15.427Z,14.20
2022-12-25T13:43:18.953Z,12.80
2022-12-25T13:48:24.131Z,14.60
2022-12-25T13:53:27.656Z,12.30
2022-12-25T13:58:31.297Z,13.90
2022-12-25T14:03:34.954Z,15.00
2022-12-25T14:08:38.618Z,17.20
2022-12-25T14:13:42.124Z,20.30
2022-12-25T14:18:45.641Z,17.80
2022-12-25T14:23:49.188Z,18.30
2022-12-25T14:28:52.703Z,18.60
2022-12-25T14:33:56.275Z,22.30
2022-12-25T14:38:59.795Z,17.30
2022-12-25T14:44:03.336Z,17.00
2022-12-25T14:49:08.905Z,17.90
2022-12-25T14:54:12.437Z,15.50
2022-12-25T14:59:16.317Z,16.90
2022-12-25T15:04:20.596Z,19.20
2022-12-25T15:09:24.185Z,19.30
2022-12-25T15:14:27.670Z,24.70
2022-12-25T15:19:37.025Z,21.40
2022-12-25T15:30:09.304Z,18.90
2022-12-25T15:35:08.731Z,23.80
2022-12-25T15:40:12.335Z,22.00
2022-12-25T15:45:15.899Z,19.30
2022-12-25T15:50:19.818Z,22.70
2022-12-25T15:55:23.379Z,22.20
2022-12-25T16:00:26.915Z,28.30
2022-12-25T16:05:30.758Z,24.40
2022-12-25T16:10:38.723Z,24.10
2022-12-25T16:15:42.822Z,23.30
2022-12-25T16:20:46.728Z,26.50
2022-12-25T16:25:50.219Z,29.90
2022-12-25T16:30:53.823Z,30.60
2022-12-25T16:35:57.311Z,34.00
2022-12-25T16:41:00.891Z,34.30
2022-12-25T16:46:04.534Z,34.20
2022-12-25T16:51:08.178Z,28.10
2022-12-25T16:56:11.787Z,30.40
2022-12-25T17:01:15.307Z,31.20
2022-12-25T17:06:19.853Z,33.30
2022-12-25T17:11:27.156Z,31.80
2022-12-25T17:16:30.776Z,32.80
2022-12-25T17:21:34.895Z,34.60
2022-12-25T17:31:42.083Z,43.70
2022-12-25T17:36:45.775Z,37.10
2022-12-25T17:41:49.325Z,38.30
2022-12-25T17:46:53.026Z,38.60
2022-12-25T17:57:00.292Z,38.10
2022-12-25T18:02:03.977Z,45.50
2022-12-25T18:12:11.232Z,40.70
2022-12-25T18:22:19.198Z,37.60
2022-12-25T18:27:22.777Z,37.50
2022-12-25T18:32:28.161Z,35.60
2022-12-25T18:37:39.445Z,38.40
2022-12-25T18:42:46.487Z,37.40
2022-12-25T18:47:50.012Z,41.80
2022-12-25T18:52:53.474Z,41.40
2022-12-25T18:57:56.967Z,41.10
2022-12-25T19:03:00.898Z,38.70
2022-12-25T19:08:04.800Z,43.40
2022-12-25T19:13:08.392Z,41.00
2022-12-25T19:18:12.344Z,40.60
2022-12-25T19:28:22.356Z,42.40
2022-12-25T19:33:26.421Z,44.60
2022-12-25T19:43:33.764Z,37.10
2022-12-25T19:48:37.364Z,41.30
2022-12-25T19:53:41.153Z,40.30
2022-12-25T19:58:44.952Z,40.70
2022-12-25T20:03:48.460Z,38.70
2022-12-25T20:08:52.374Z,42.60
2022-12-25T20:13:55.972Z,39.60
2022-12-25T20:18:59.523Z,39.40
2022-12-25T20:24:03.052Z,40.80
2022-12-25T20:29:06.618Z,40.40
2022-12-25T20:34:10.611Z,41.20
2022-12-25T20:39:14.235Z,37.60
2022-12-25T20:44:17.942Z,44.10
2022-12-25T20:49:21.476Z,39.70
2022-12-25T20:54:24.990Z,42.70
2022-12-25T20:59:33.513Z,44.00
2022-12-25T21:04:40.675Z,46.90
2022-12-25T21:09:44.175Z,50.70
2022-12-25T21:14:47.634Z,46.30
2022-12-25T21:19:51.238Z,45.70
2022-12-25T21:24:54.809Z,46.40
2022-12-25T21:29:58.967Z,45.40
2022-12-25T21:35:19.197Z,43.20
2022-12-25T21:40:22.711Z,45.00
2022-12-25T21:45:26.223Z,46.20
2022-12-25T21:50:47.491Z,43.50
2022-12-25T21:55:51.014Z,51.20
2022-12-25T22:00:54.688Z,48.30
2022-12-25T22:06:21.122Z,47.10
2022-12-25T22:11:43.064Z,46.30
2022-12-25T22:17:04.435Z,39.10
2022-12-25T22:22:07.912Z,39.20
2022-12-25T22:27:11.435Z,34.70
2022-12-25T22:32:14.929Z,40.90
2022-12-25T22:37:18.426Z,36.30
2022-12-25T22:42:22.334Z,48.20
2022-12-25T22:47:25.877Z,65.70
2022-12-25T22:52:29.413Z,64.60
2022-12-25T22:57:32.936Z,65.00
2022-12-25T23:02:36.680Z,60.40
2022-12-25T23:07:41.709Z,62.00
2022-12-25T23:13:02.753Z,58.10
2022-12-25T23:18:29.306Z,55.20
2022-12-25T23:23:50.452Z,46.80
2022-12-25T23:29:11.897Z,49.30
2022-12-25T23:34:15.464Z,47.00
2022-12-25T23:39:18.927Z,42.50
2022-12-25T23:44:22.410Z,39.60
2022-12-25T23:49:26.200Z,48.40
2022-12-25T23:54:29.736Z,43.40
2022-12-25T23:59:33.257Z,42.00
